Terminal Aerodrome Forecast
Issued by NWS

Home | Current Version | Previous Version | Text Only | Print | Product List | Glossary On
Versions: 1 2 3 4 5 6 7 8 9 10 11 12 13 14
000
FTUS46 KMTR 221120
TAFSNS
TAF
KSNS 221120Z 2212/2312 26005KT 6SM BR FEW009 OVC013
     FM221800 28012KT P6SM SCT014
      TEMPO 2300/2303 OVC012
     FM230300 27006KT P6SM OVC008
     FM230700 26003KT P6SM OVC007=

USA.gov is the U.S. government's official web portal to all federal, state and local government web resources and services.